sensor_id;sensor_type;location;lat;lon;timestamp;P1;durP1;ratioP1;P2;durP2;ratioP2
61704;SDS011;47627;48.078;11.522;2023-11-18T08:14:02;9.52;;;7.70;;
61704;SDS011;47627;48.078;11.522;2023-11-18T08:16:28;10.98;;;8.10;;
61704;SDS011;47627;48.078;11.522;2023-11-18T08:18:54;9.88;;;7.25;;
61704;SDS011;47627;48.078;11.522;2023-11-18T08:21:20;8.50;;;7.05;;
61704;SDS011;47627;48.078;11.522;2023-11-18T08:31:52;5.53;;;4.93;;
61704;SDS011;47627;48.078;11.522;2023-11-18T08:34:18;6.25;;;5.53;;
61704;SDS011;47627;48.078;11.522;2023-11-18T08:36:43;5.32;;;4.78;;
61704;SDS011;47627;48.078;11.522;2023-11-18T08:39:09;6.18;;;5.57;;
61704;SDS011;47627;48.078;11.522;2023-11-18T08:41:35;6.60;;;6.00;;
61704;SDS011;47627;48.078;11.522;2023-11-18T08:49:24;6.28;;;5.68;;
61704;SDS011;47627;48.078;11.522;2023-11-18T08:51:51;6.82;;;5.90;;
61704;SDS011;47627;48.078;11.522;2023-11-18T08:54:21;6.45;;;5.10;;
61704;SDS011;47627;48.078;11.522;2023-11-18T08:56:51;7.75;;;5.90;;
61704;SDS011;47627;48.078;11.522;2023-11-18T08:59:20;6.00;;;5.40;;
61704;SDS011;47627;48.078;11.522;2023-11-18T09:01:52;5.43;;;4.93;;
61704;SDS011;47627;48.078;11.522;2023-11-18T09:04:38;5.60;;;5.10;;
61704;SDS011;47627;48.078;11.522;2023-11-18T09:07:04;7.10;;;4.63;;
61704;SDS011;47627;48.078;11.522;2023-11-18T09:09:29;5.13;;;4.63;;
61704;SDS011;47627;48.078;11.522;2023-11-18T09:11:57;4.85;;;4.45;;
61704;SDS011;47627;48.078;11.522;2023-11-18T09:14:25;5.20;;;4.57;;
61704;SDS011;47627;48.078;11.522;2023-11-18T09:16:51;4.32;;;3.92;;
61704;SDS011;47627;48.078;11.522;2023-11-18T09:19:16;5.43;;;4.93;;
61704;SDS011;47627;48.078;11.522;2023-11-18T09:21:42;5.50;;;4.53;;
61704;SDS011;47627;48.078;11.522;2023-11-18T09:29:31;3.88;;;3.22;;
61704;SDS011;47627;48.078;11.522;2023-11-18T09:31:59;4.00;;;3.55;;
61704;SDS011;47627;48.078;11.522;2023-11-18T09:34:24;4.25;;;3.15;;
61704;SDS011;47627;48.078;11.522;2023-11-18T09:36:53;3.42;;;3.13;;
61704;SDS011;47627;48.078;11.522;2023-11-18T09:39:18;4.35;;;3.13;;
61704;SDS011;47627;48.078;11.522;2023-11-18T09:41:55;3.15;;;2.80;;
61704;SDS011;47627;48.078;11.522;2023-11-18T09:47:19;3.55;;;2.88;;
61704;SDS011;47627;48.078;11.522;2023-11-18T09:49:49;3.70;;;2.90;;
61704;SDS011;47627;48.078;11.522;2023-11-18T09:55:04;4.07;;;2.30;;
61704;SDS011;47627;48.078;11.522;2023-11-18T09:57:39;3.90;;;2.50;;
61704;SDS011;47627;48.078;11.522;2023-11-18T10:02:51;2.85;;;2.65;;
61704;SDS011;47627;48.078;11.522;2023-11-18T10:05:17;5.18;;;2.50;;
61704;SDS011;47627;48.078;11.522;2023-11-18T10:07:49;2.05;;;1.85;;
61704;SDS011;47627;48.078;11.522;2023-11-18T10:10:14;3.55;;;2.00;;
61704;SDS011;47627;48.078;11.522;2023-11-18T10:15:21;2.78;;;1.83;;
61704;SDS011;47627;48.078;11.522;2023-11-18T10:17:50;2.05;;;1.60;;
61704;SDS011;47627;48.078;11.522;2023-11-18T10:20:44;4.15;;;2.30;;
61704;SDS011;47627;48.078;11.522;2023-11-18T10:23:10;4.57;;;2.97;;
61704;SDS011;47627;48.078;11.522;2023-11-18T10:25:36;3.05;;;2.42;;
61704;SDS011;47627;48.078;11.522;2023-11-18T10:28:05;2.30;;;1.70;;
61704;SDS011;47627;48.078;11.522;2023-11-18T10:30:30;2.33;;;1.83;;
61704;SDS011;47627;48.078;11.522;2023-11-18T10:41:02;1.63;;;1.52;;
61704;SDS011;47627;48.078;11.522;2023-11-18T10:43:28;1.58;;;1.45;;
61704;SDS011;47627;48.078;11.522;2023-11-18T10:46:05;2.58;;;1.67;;
61704;SDS011;47627;48.078;11.522;2023-11-18T10:48:36;2.75;;;1.60;;
61704;SDS011;47627;48.078;11.522;2023-11-18T10:51:02;2.60;;;1.40;;
61704;SDS011;47627;48.078;11.522;2023-11-18T10:53:28;4.05;;;1.40;;
61704;SDS011;47627;48.078;11.522;2023-11-18T10:55:53;2.30;;;1.40;;
61704;SDS011;47627;48.078;11.522;2023-11-18T10:58:19;1.73;;;1.33;;
61704;SDS011;47627;48.078;11.522;2023-11-18T11:00:45;2.13;;;1.50;;
61704;SDS011;47627;48.078;11.522;2023-11-18T11:38:17;1.08;;;0.90;;
61704;SDS011;47627;48.078;11.522;2023-11-18T11:40:43;0.80;;;0.70;;
61704;SDS011;47627;48.078;11.522;2023-11-18T11:43:10;1.98;;;0.95;;
61704;SDS011;47627;48.078;11.522;2023-11-18T11:45:46;1.92;;;1.10;;
61704;SDS011;47627;48.078;11.522;2023-11-18T11:48:13;2.58;;;1.45;;
61704;SDS011;47627;48.078;11.522;2023-11-18T11:50:44;1.13;;;1.00;;
61704;SDS011;47627;48.078;11.522;2023-11-18T11:53:13;1.40;;;0.80;;
61704;SDS011;47627;48.078;11.522;2023-11-18T11:55:45;1.17;;;0.90;;
61704;SDS011;47627;48.078;11.522;2023-11-18T11:58:29;2.08;;;0.88;;
61704;SDS011;47627;48.078;11.522;2023-11-18T12:00:56;3.92;;;1.00;;
61704;SDS011;47627;48.078;11.522;2023-11-18T12:03:23;1.23;;;1.10;;
61704;SDS011;47627;48.078;11.522;2023-11-18T12:05:54;1.17;;;0.88;;
61704;SDS011;47627;48.078;11.522;2023-11-18T12:08:21;1.30;;;1.02;;
61704;SDS011;47627;48.078;11.522;2023-11-18T12:10:50;1.33;;;1.02;;
61704;SDS011;47627;48.078;11.522;2023-11-18T12:13:17;2.72;;;1.38;;
61704;SDS011;47627;48.078;11.522;2023-11-18T12:15:51;1.20;;;1.10;;
61704;SDS011;47627;48.078;11.522;2023-11-18T12:18:22;1.42;;;0.82;;
61704;SDS011;47627;48.078;11.522;2023-11-18T12:20:48;2.10;;;0.90;;
61704;SDS011;47627;48.078;11.522;2023-11-18T12:23:19;1.73;;;1.00;;
61704;SDS011;47627;48.078;11.522;2023-11-18T12:25:49;1.73;;;0.82;;
61704;SDS011;47627;48.078;11.522;2023-11-18T12:28:19;4.25;;;1.23;;
61704;SDS011;47627;48.078;11.522;2023-11-18T12:30:46;1.92;;;1.02;;
61704;SDS011;47627;48.078;11.522;2023-11-18T12:44:15;3.22;;;1.73;;
61704;SDS011;47627;48.078;11.522;2023-11-18T12:49:43;1.70;;;1.10;;
61704;SDS011;47627;48.078;11.522;2023-11-18T12:54:51;1.98;;;1.20;;
61704;SDS011;47627;48.078;11.522;2023-11-18T12:57:19;2.85;;;1.60;;
61704;SDS011;47627;48.078;11.522;2023-11-18T12:59:47;2.83;;;1.40;;
61704;SDS011;47627;48.078;11.522;2023-11-18T13:02:13;3.95;;;1.20;;
61704;SDS011;47627;48.078;11.522;2023-11-18T13:04:44;4.80;;;2.70;;
61704;SDS011;47627;48.078;11.522;2023-11-18T13:07:12;2.95;;;1.60;;
61704;SDS011;47627;48.078;11.522;2023-11-18T13:09:38;1.50;;;1.25;;
61704;SDS011;47627;48.078;11.522;2023-11-18T13:12:06;2.70;;;1.23;;
61704;SDS011;47627;48.078;11.522;2023-11-18T13:14:34;2.35;;;1.30;;
61704;SDS011;47627;48.078;11.522;2023-11-18T13:17:02;2.13;;;1.35;;
61704;SDS011;47627;48.078;11.522;2023-11-18T13:19:31;2.85;;;1.05;;
61704;SDS011;47627;48.078;11.522;2023-11-18T13:21:57;2.42;;;1.13;;
61704;SDS011;47627;48.078;11.522;2023-11-18T13:24:24;3.55;;;1.38;;
61704;SDS011;47627;48.078;11.522;2023-11-18T13:26:49;1.73;;;1.20;;
61704;SDS011;47627;48.078;11.522;2023-11-18T13:29:14;2.88;;;1.02;;
61704;SDS011;47627;48.078;11.522;2023-11-18T13:31:41;3.75;;;1.38;;
61704;SDS011;47627;48.078;11.522;2023-11-18T13:34:06;2.60;;;0.95;;
61704;SDS011;47627;48.078;11.522;2023-11-18T13:36:32;2.40;;;1.00;;
61704;SDS011;47627;48.078;11.522;2023-11-18T13:38:58;2.05;;;1.17;;
61704;SDS011;47627;48.078;11.522;2023-11-18T13:41:30;2.17;;;1.30;;
61704;SDS011;47627;48.078;11.522;2023-11-18T13:43:56;2.22;;;1.13;;
61704;SDS011;47627;48.078;11.522;2023-11-18T13:46:22;2.08;;;1.38;;
61704;SDS011;47627;48.078;11.522;2023-11-18T13:48:47;1.50;;;1.40;;
61704;SDS011;47627;48.078;11.522;2023-11-18T13:51:14;2.80;;;1.20;;
61704;SDS011;47627;48.078;11.522;2023-11-18T13:56:22;1.83;;;1.15;;
61704;SDS011;47627;48.078;11.522;2023-11-18T13:58:48;1.65;;;0.80;;
61704;SDS011;47627;48.078;11.522;2023-11-18T14:01:15;1.10;;;0.90;;
61704;SDS011;47627;48.078;11.522;2023-11-18T14:03:41;3.95;;;1.50;;
61704;SDS011;47627;48.078;11.522;2023-11-18T14:06:08;1.98;;;1.20;;
61704;SDS011;47627;48.078;11.522;2023-11-18T14:08:38;3.10;;;1.70;;
61704;SDS011;47627;48.078;11.522;2023-11-18T14:11:03;3.00;;;1.58;;
61704;SDS011;47627;48.078;11.522;2023-11-18T14:13:31;2.55;;;1.45;;
61704;SDS011;47627;48.078;11.522;2023-11-18T14:15:59;2.15;;;1.33;;
61704;SDS011;47627;48.078;11.522;2023-11-18T14:18:24;1.90;;;1.13;;
61704;SDS011;47627;48.078;11.522;2023-11-18T14:20:50;3.65;;;1.90;;
61704;SDS011;47627;48.078;11.522;2023-11-18T14:23:15;2.78;;;1.30;;
61704;SDS011;47627;48.078;11.522;2023-11-18T14:25:40;3.58;;;1.70;;
61704;SDS011;47627;48.078;11.522;2023-11-18T14:28:06;3.47;;;1.95;;
61704;SDS011;47627;48.078;11.522;2023-11-18T14:30:34;2.88;;;1.73;;
61704;SDS011;47627;48.078;11.522;2023-11-18T14:32:59;1.85;;;1.30;;
61704;SDS011;47627;48.078;11.522;2023-11-18T14:35:27;3.25;;;1.30;;
61704;SDS011;47627;48.078;11.522;2023-11-18T14:37:52;3.83;;;1.50;;
61704;SDS011;47627;48.078;11.522;2023-11-18T14:40:17;3.30;;;1.45;;
61704;SDS011;47627;48.078;11.522;2023-11-18T14:42:43;4.45;;;1.50;;
61704;SDS011;47627;48.078;11.522;2023-11-18T14:45:13;2.00;;;1.38;;
61704;SDS011;47627;48.078;11.522;2023-11-18T14:47:39;2.80;;;1.60;;
61704;SDS011;47627;48.078;11.522;2023-11-18T14:50:05;3.80;;;1.60;;
61704;SDS011;47627;48.078;11.522;2023-11-18T14:52:40;2.10;;;1.35;;
61704;SDS011;47627;48.078;11.522;2023-11-18T14:55:51;2.75;;;1.73;;
61704;SDS011;47627;48.078;11.522;2023-11-18T14:58:54;3.90;;;1.58;;
61704;SDS011;47627;48.078;11.522;2023-11-18T15:01:27;4.72;;;1.75;;
61704;SDS011;47627;48.078;11.522;2023-11-18T15:03:54;2.60;;;1.90;;
61704;SDS011;47627;48.078;11.522;2023-11-18T15:06:33;3.40;;;1.95;;
61704;SDS011;47627;48.078;11.522;2023-11-18T15:09:36;2.83;;;1.90;;
61704;SDS011;47627;48.078;11.522;2023-11-18T15:30:19;4.28;;;2.47;;
61704;SDS011;47627;48.078;11.522;2023-11-18T15:39:15;5.70;;;3.03;;
61704;SDS011;47627;48.078;11.522;2023-11-18T15:41:58;8.55;;;3.95;;
61704;SDS011;47627;48.078;11.522;2023-11-18T15:44:34;7.35;;;3.83;;
61704;SDS011;47627;48.078;11.522;2023-11-18T15:47:26;6.18;;;4.13;;
61704;SDS011;47627;48.078;11.522;2023-11-18T15:50:15;10.63;;;5.80;;
61704;SDS011;47627;48.078;11.522;2023-11-18T15:52:42;12.35;;;6.72;;
61704;SDS011;47627;48.078;11.522;2023-11-18T15:55:41;31.73;;;16.70;;
61704;SDS011;47627;48.078;11.522;2023-11-18T15:58:34;21.30;;;11.77;;
61704;SDS011;47627;48.078;11.522;2023-11-18T16:01:04;16.42;;;8.20;;
61704;SDS011;47627;48.078;11.522;2023-11-18T16:06:28;7.82;;;5.15;;
61704;SDS011;47627;48.078;11.522;2023-11-18T16:09:00;7.88;;;4.65;;
61704;SDS011;47627;48.078;11.522;2023-11-18T16:11:34;8.07;;;3.60;;
61704;SDS011;47627;48.078;11.522;2023-11-18T17:07:54;8.15;;;6.28;;
61704;SDS011;47627;48.078;11.522;2023-11-18T17:10:22;7.13;;;4.93;;
61704;SDS011;47627;48.078;11.522;2023-11-18T17:31:59;6.00;;;4.03;;
